createdAt,value
2018-11-01T00:00:54.414Z,83287.00
2018-11-01T00:05:58.250Z,83270.00
2018-11-01T00:11:02.165Z,83256.00
2018-11-01T00:16:06.044Z,83243.00
2018-11-01T00:21:10.034Z,83233.00
2018-11-01T00:26:13.850Z,83217.00
2018-11-01T00:31:17.887Z,83212.00
2018-11-01T00:36:21.711Z,83206.00
2018-11-01T00:41:25.746Z,83204.00
2018-11-01T00:46:29.588Z,83233.00
2018-11-01T00:51:33.853Z,83227.00
2018-11-01T00:56:37.664Z,83218.00
2018-11-01T01:01:41.463Z,83177.00
2018-11-01T01:06:45.526Z,83158.00
2018-11-01T01:11:49.634Z,83136.00
2018-11-01T01:16:53.468Z,83107.00
2018-11-01T01:21:57.278Z,83084.00
2018-11-01T01:27:01.348Z,83074.00
2018-11-01T01:32:05.158Z,83061.00
2018-11-01T01:37:08.970Z,83058.00
2018-11-01T01:42:12.997Z,83052.00
2018-11-01T01:47:17.099Z,83051.00
2018-11-01T01:52:21.154Z,83054.00
2018-11-01T01:57:24.988Z,83051.00
2018-11-01T02:02:28.814Z,83047.00
2018-11-01T02:07:33.014Z,83050.00
2018-11-01T02:12:37.294Z,83047.00
2018-11-01T02:17:41.449Z,83009.00
2018-11-01T02:22:45.775Z,82995.00
2018-11-01T02:27:55.178Z,82981.00
2018-11-01T02:32:59.019Z,82967.00
2018-11-01T02:38:03.246Z,82953.00
2018-11-01T02:43:07.466Z,82927.00
2018-11-01T02:48:11.333Z,82921.00
2018-11-01T02:53:15.141Z,82918.00
2018-11-01T02:58:19.212Z,82927.00
2018-11-01T03:03:23.111Z,82938.00
2018-11-01T03:08:26.933Z,82937.00
2018-11-01T03:13:30.751Z,82936.00
2018-11-01T03:18:34.884Z,82948.00
2018-11-01T03:23:38.689Z,82958.00
2018-11-01T03:28:42.490Z,82987.00
2018-11-01T03:33:46.527Z,83000.00
2018-11-01T03:38:50.387Z,83001.00
2018-11-01T03:43:54.115Z,82998.00
2018-11-01T03:48:58.146Z,82996.00
2018-11-01T03:54:02.010Z,82998.00
2018-11-01T04:08:40.513Z,82962.00
2018-11-01T04:13:44.464Z,82947.00
2018-11-01T04:18:48.193Z,82943.00
2018-11-01T04:23:52.233Z,82963.00
2018-11-01T04:28:56.319Z,82942.00
2018-11-01T04:34:00.101Z,82925.00
2018-11-01T04:39:05.607Z,82908.00
2018-11-01T04:44:09.460Z,82902.00
2018-11-01T04:49:13.166Z,82917.00
2018-11-01T04:54:17.257Z,82910.00
2018-11-01T04:59:21.359Z,82885.00
2018-11-01T05:04:25.157Z,82921.00
2018-11-01T05:09:28.945Z,82937.00
2018-11-01T05:14:33.040Z,82944.00
2018-11-01T05:19:37.117Z,82924.00
2018-11-01T05:24:40.916Z,82956.00
2018-11-01T05:29:44.686Z,82928.00
2018-11-01T05:34:49.066Z,82905.00
2018-11-01T05:39:53.100Z,82902.00
2018-11-01T05:44:56.924Z,82912.00
2018-11-01T05:50:00.961Z,82929.00
2018-11-01T05:55:05.674Z,82929.00
2018-11-01T06:00:11.586Z,82910.00
2018-11-01T06:05:15.375Z,82888.00
2018-11-01T06:10:19.213Z,82873.00
2018-11-01T06:15:23.679Z,82846.00
2018-11-01T06:20:27.449Z,82848.00
2018-11-01T06:25:31.496Z,82853.00
2018-11-01T06:30:35.506Z,82854.00
2018-11-01T06:35:49.786Z,82852.00
2018-11-01T06:40:53.580Z,82858.00
2018-11-01T06:45:57.605Z,82860.00
2018-11-01T06:51:01.546Z,82865.00
2018-11-01T06:56:05.408Z,82878.00
2018-11-01T07:01:09.442Z,82887.00
2018-11-01T07:06:13.451Z,82904.00
2018-11-01T07:11:17.502Z,82924.00
2018-11-01T07:16:21.306Z,82938.00
2018-11-01T07:21:25.313Z,82953.00
2018-11-01T07:26:29.384Z,82954.00
2018-11-01T07:31:33.712Z,82968.00
2018-11-01T07:36:37.493Z,82978.00
2018-11-01T07:41:41.282Z,82998.00
2018-11-01T07:46:45.905Z,83026.00
2018-11-01T07:51:50.953Z,83043.00
2018-11-01T07:56:55.948Z,83051.00
2018-11-01T08:02:00.891Z,83055.00
2018-11-01T08:07:06.063Z,83044.00
2018-11-01T08:12:10.504Z,83053.00
2018-11-01T08:17:15.497Z,83068.00
2018-11-01T08:22:20.119Z,83080.00
2018-11-01T08:27:24.779Z,83087.00
2018-11-01T08:32:29.887Z,83097.00
2018-11-01T08:37:34.499Z,83119.00
2018-11-01T08:42:39.668Z,83146.00
2018-11-01T08:47:44.671Z,83166.00
2018-11-01T08:52:49.740Z,83188.00
2018-11-01T08:57:54.673Z,83210.00
2018-11-01T09:02:59.329Z,83221.00
2018-11-01T09:08:04.971Z,83223.00
2018-11-01T09:13:10.114Z,83241.00
2018-11-01T09:18:14.759Z,83256.00
2018-11-01T09:23:19.424Z,83267.00
2018-11-01T09:28:24.023Z,83280.00
2018-11-01T09:33:28.640Z,83292.00
2018-11-01T09:38:33.305Z,83307.00
2018-11-01T09:43:38.140Z,83322.00
2018-11-01T09:48:42.739Z,83326.00
2018-11-01T09:53:47.533Z,83331.00
2018-11-01T09:58:52.263Z,83340.00
2018-11-01T10:03:57.952Z,83354.00
2018-11-01T10:09:03.073Z,83363.00
2018-11-01T10:14:07.958Z,83369.00
2018-11-01T10:19:12.536Z,83382.00
2018-11-01T10:24:17.785Z,83382.00
2018-11-01T10:29:22.305Z,83402.00
2018-11-01T10:34:27.288Z,83412.00
2018-11-01T10:39:31.129Z,83428.00
2018-11-01T10:44:36.339Z,83438.00
2018-11-01T10:49:40.649Z,83449.00
2018-11-01T10:54:44.968Z,83447.00
2018-11-01T10:59:49.392Z,83465.00
2018-11-01T11:04:53.680Z,83449.00
2018-11-01T11:09:58.431Z,83463.00
2018-11-01T11:15:02.776Z,83460.00
2018-11-01T11:20:08.047Z,83452.00
2018-11-01T11:25:12.456Z,83468.00
2018-11-01T11:30:16.356Z,83479.00
2018-11-01T11:35:20.210Z,83490.00
2018-11-01T11:40:24.002Z,83498.00
2018-11-01T11:45:28.043Z,83510.00
2018-11-01T11:50:31.907Z,83510.00
2018-11-01T11:55:35.693Z,83511.00
2018-11-01T12:00:39.736Z,83510.00
2018-11-01T12:05:43.846Z,83495.00
2018-11-01T12:10:47.913Z,83488.00
2018-11-01T12:15:51.706Z,83483.00
2018-11-01T12:20:55.510Z,83481.00
2018-11-01T12:25:59.562Z,83495.00
2018-11-01T12:31:03.662Z,83506.00
2018-11-01T12:36:07.571Z,83516.00
2018-11-01T12:41:11.322Z,83509.00
2018-11-01T12:46:15.447Z,83514.00
2018-11-01T12:51:19.674Z,83511.00
2018-11-01T12:56:23.554Z,83517.00
2018-11-01T13:01:27.494Z,83524.00
2018-11-01T13:06:31.622Z,83513.00
2018-11-01T13:11:35.725Z,83519.00
2018-11-01T13:16:39.884Z,83511.00
2018-11-01T13:21:43.710Z,83507.00
2018-11-01T13:26:47.760Z,83500.00
2018-11-01T13:31:51.617Z,83497.00
2018-11-01T13:42:05.633Z,83489.00
2018-11-01T13:47:09.535Z,83457.00
2018-11-01T13:52:13.274Z,83468.00
2018-11-01T13:57:17.098Z,83463.00
2018-11-01T14:02:21.986Z,83448.00
2018-11-01T14:07:26.013Z,83453.00
2018-11-01T14:12:29.809Z,83445.00
2018-11-01T14:17:34.085Z,83445.00
2018-11-01T14:22:37.866Z,83438.00
2018-11-01T14:27:42.045Z,83419.00
2018-11-01T14:32:45.854Z,83408.00
2018-11-01T14:37:49.727Z,83404.00
2018-11-01T14:42:53.464Z,83419.00
2018-11-01T14:47:57.533Z,83407.00
2018-11-01T14:53:02.411Z,83404.00
2018-11-01T14:58:06.858Z,83396.00
2018-11-01T15:03:09.149Z,83404.00
2018-11-01T15:08:12.932Z,83410.00
2018-11-01T15:13:16.862Z,83413.00
2018-11-01T15:18:20.556Z,83403.00
2018-11-01T15:23:24.427Z,83399.00
2018-11-01T15:28:28.222Z,83397.00
2018-11-01T15:33:32.305Z,83378.00
2018-11-01T15:38:36.092Z,83377.00
2018-11-01T15:43:40.165Z,83373.00
2018-11-01T15:48:43.980Z,83358.00
2018-11-01T15:53:48.070Z,83341.00
2018-11-01T15:58:51.965Z,83333.00
2018-11-01T16:03:56.021Z,83318.00
2018-11-01T16:08:59.817Z,83317.00
2018-11-01T16:14:03.797Z,83306.00
2018-11-01T16:19:08.126Z,83303.00
2018-11-01T16:24:12.331Z,83298.00
2018-11-01T16:29:16.677Z,83293.00
2018-11-01T16:34:21.097Z,83299.00
2018-11-01T16:39:25.529Z,83311.00
2018-11-01T16:44:30.190Z,83315.00
2018-11-01T16:49:34.815Z,83318.00
2018-11-01T16:54:39.557Z,83317.00
2018-11-01T16:59:45.898Z,83325.00
2018-11-01T17:04:51.296Z,83325.00
2018-11-01T17:09:55.749Z,83322.00
2018-11-01T17:15:00.931Z,83317.00
2018-11-01T17:20:06.033Z,83317.00
2018-11-01T17:25:10.873Z,83305.00
2018-11-01T17:30:15.489Z,83303.00
2018-11-01T17:35:20.304Z,83297.00
2018-11-01T17:40:24.152Z,83289.00
2018-11-01T17:45:28.008Z,83282.00
2018-11-01T17:50:31.771Z,83286.00
2018-11-01T17:55:35.549Z,83290.00
2018-11-01T18:00:39.343Z,83291.00
2018-11-01T18:05:43.366Z,83293.00
2018-11-01T18:10:47.181Z,83296.00
2018-11-01T18:15:51.036Z,83281.00
2018-11-01T18:20:55.050Z,83279.00
2018-11-01T18:25:59.101Z,83276.00
2018-11-01T18:31:03.186Z,83263.00
2018-11-01T18:36:06.964Z,83266.00
2018-11-01T18:41:10.756Z,83274.00
2018-11-01T18:46:14.793Z,83282.00
2018-11-01T18:51:18.650Z,83292.00
2018-11-01T18:56:22.671Z,83299.00
2018-11-01T19:01:26.710Z,83303.00
2018-11-01T19:06:30.709Z,83315.00
2018-11-01T19:11:34.511Z,83321.00
2018-11-01T19:16:38.522Z,83357.00
2018-11-01T19:21:42.697Z,83405.00
2018-11-01T19:26:46.795Z,83434.00
2018-11-01T19:31:50.542Z,83433.00
2018-11-01T19:36:54.333Z,83444.00
2018-11-01T19:41:58.355Z,83458.00
2018-11-01T19:47:02.402Z,83479.00
2018-11-01T19:52:06.558Z,83506.00
2018-11-01T19:57:10.370Z,83518.00
2018-11-01T20:02:14.487Z,83529.00
2018-11-01T20:07:18.287Z,83525.00
2018-11-01T20:12:22.205Z,83529.00
2018-11-01T20:17:26.006Z,83532.00
2018-11-01T20:22:29.830Z,83545.00
2018-11-01T20:27:34.086Z,83547.00
2018-11-01T20:32:38.078Z,83558.00
2018-11-01T20:37:42.348Z,83567.00
2018-11-01T20:42:46.097Z,83573.00
2018-11-01T20:47:49.914Z,83570.00
2018-11-01T20:52:53.728Z,83572.00
2018-11-01T20:57:57.864Z,83583.00
2018-11-01T21:03:01.786Z,83572.00
2018-11-01T21:08:05.997Z,83569.00
2018-11-01T21:13:09.759Z,83573.00
2018-11-01T21:18:13.549Z,83580.00
2018-11-01T21:23:17.609Z,83576.00
2018-11-01T21:28:21.683Z,83570.00
2018-11-01T21:33:25.518Z,83562.00
2018-11-01T21:38:29.299Z,83567.00
2018-11-01T21:43:33.986Z,83572.00
2018-11-01T21:48:38.142Z,83581.00
2018-11-01T21:53:42.191Z,83577.00
2018-11-01T21:58:45.940Z,83577.00
2018-11-01T22:03:49.799Z,83569.00
2018-11-01T22:08:53.850Z,83564.00
2018-11-01T22:13:57.626Z,83561.00
2018-11-01T22:19:02.484Z,83546.00
2018-11-01T22:24:06.575Z,83541.00
2018-11-01T22:29:10.377Z,83527.00
2018-11-01T22:34:14.185Z,83526.00
2018-11-01T22:39:17.998Z,83521.00
2018-11-01T22:44:22.583Z,83524.00
2018-11-01T22:49:26.408Z,83525.00
2018-11-01T22:54:30.169Z,83531.00
2018-11-01T22:59:34.047Z,83533.00
2018-11-01T23:04:38.080Z,83548.00
2018-11-01T23:09:41.909Z,83533.00
2018-11-01T23:14:45.693Z,83528.00
2018-11-01T23:19:49.771Z,83517.00
2018-11-01T23:24:53.824Z,83512.00
2018-11-01T23:29:57.603Z,83508.00
2018-11-01T23:35:01.632Z,83514.00
2018-11-01T23:40:10.889Z,83523.00
2018-11-01T23:45:20.270Z,83533.00
2018-11-01T23:50:58.410Z,83532.00
2018-11-01T23:56:02.602Z,83537.00
